»·PEaware :: N4362X KSNA-KCRQ

N4362X :: KSNA-KCRQ

FLIGHT INFORMATION

Flight Status: Arrived
Operator: Privately registered:
United States
More flights under this callsign
Pilot: UCanFly2 (25446)
Aircraft: PIPER PA-28 CHEROKEE ARCHER
(P28A)
More flights by this aircraft type
Origin: KSNA John Wayne-Orange Co
United States
Destination: KCRQ McClellan-Palomar
United States
More flights between these airports :: More routes between these airports
Route: +SLI V23 OCN
File this flight plan on PilotEdge
Remarks: I-2 rating
Altitude:
(Current/Filed)
5,000ft
Speed:
(Current/Filed)
270kts
Departed: 14-Jan-20 11:29 AM
Arrived: 14-Jan-20 12:04 PM
Distance/Time
Traveled:
44nm/0:35
Distance/Time
To Go:
Arrived

Flight Plot

Page will automatically refresh every two minutes.


Map Options




Map Legend


Flown Route
Filed Route
Departure Airport
Arrival Airport
Navaid (VOR, NDB)
Fix

Horizontal Profiles

Position Reports

Time Latitude Longitude Heading Altitude Ground
Speed
14-Jan-20 10:57 33.679145 -117.869296 72 59ft 0kts
14-Jan-20 10:58 33.679145 -117.869296 72 59ft 0kts
14-Jan-20 10:59 33.679145 -117.869295 72 59ft 0kts
14-Jan-20 11:00 33.679146 -117.869293 72 59ft 0kts
14-Jan-20 11:01 33.679146 -117.869291 72 59ft 0kts
14-Jan-20 11:02 33.679147 -117.869290 72 59ft 0kts
14-Jan-20 11:02 33.679147 -117.869288 72 59ft 0kts
14-Jan-20 11:04 33.679148 -117.869286 72 59ft 0kts
14-Jan-20 11:05 33.679148 -117.869284 72 59ft 0kts
14-Jan-20 11:05 33.679148 -117.869283 72 59ft 0kts
14-Jan-20 11:07 33.679149 -117.869281 72 59ft 0kts
14-Jan-20 11:07 33.679149 -117.869279 72 59ft 0kts
14-Jan-20 11:08 33.679150 -117.869278 72 59ft 0kts
14-Jan-20 11:10 33.679150 -117.869276 72 59ft 0kts
14-Jan-20 11:10 33.679151 -117.869274 72 59ft 0kts
14-Jan-20 11:11 33.679151 -117.869273 72 59ft 0kts
14-Jan-20 11:12 33.679151 -117.869271 72 59ft 0kts
14-Jan-20 11:13 33.679152 -117.869269 72 59ft 0kts
14-Jan-20 11:15 33.679152 -117.869268 72 59ft 0kts
14-Jan-20 11:15 33.679153 -117.869266 72 59ft 0kts
14-Jan-20 11:16 33.679153 -117.869264 72 59ft 0kts
14-Jan-20 11:17 33.679154 -117.869263 72 59ft 0kts
14-Jan-20 11:18 33.679154 -117.869261 72 59ft 0kts
14-Jan-20 11:19 33.680498 -117.867639 26 59ft 20kts
14-Jan-20 11:21 33.680879 -117.866532 116 59ft 0kts
14-Jan-20 11:22 33.680879 -117.866531 116 59ft 0kts
14-Jan-20 11:23 33.680878 -117.866529 116 59ft 0kts
14-Jan-20 11:24 33.680878 -117.866528 116 59ft 0kts
14-Jan-20 11:25 33.680877 -117.866527 116 59ft 0kts
14-Jan-20 11:26 33.680877 -117.866526 116 59ft 0kts
14-Jan-20 11:27 33.680876 -117.866525 116 59ft 0kts
14-Jan-20 11:28 33.678458 -117.867065 208 59ft 57kts
14-Jan-20 11:29 33.658409 -117.873898 182 1165ft 79kts
14-Jan-20 11:30 33.636488 -117.875455 181 2351ft 80kts
14-Jan-20 11:31 33.614212 -117.877976 185 3473ft 82kts
14-Jan-20 11:32 33.590475 -117.879346 157 4472ft 94kts
14-Jan-20 11:33 33.576419 -117.849727 110 5167ft 123kts
14-Jan-20 11:34 33.561287 -117.807195 118 5059ft 139kts
14-Jan-20 11:35 33.540971 -117.767619 131 5058ft 140kts
14-Jan-20 11:36 33.515510 -117.732431 130 5059ft 140kts
14-Jan-20 11:37 33.489965 -117.697112 132 5059ft 140kts
14-Jan-20 11:38 33.463142 -117.663418 133 5059ft 140kts
14-Jan-20 11:39 33.434379 -117.632252 140 5059ft 139kts
14-Jan-20 11:40 33.404188 -117.602818 141 5059ft 139kts
14-Jan-20 11:41 33.374137 -117.573403 141 5059ft 139kts
14-Jan-20 11:42 33.344100 -117.543939 141 5059ft 139kts
14-Jan-20 11:43 33.313991 -117.514322 140 5059ft 139kts
14-Jan-20 11:44 33.290117 -117.478354 120 5059ft 139kts
14-Jan-20 11:45 33.269599 -117.438945 120 5060ft 139kts
14-Jan-20 11:46 33.246814 -117.401369 130 5059ft 139kts
14-Jan-20 11:47 33.239074 -117.358012 89 5059ft 137kts
14-Jan-20 11:48 33.237202 -117.312606 89 5059ft 137kts
14-Jan-20 11:49 33.235278 -117.266979 89 5059ft 137kts
14-Jan-20 11:50 33.233558 -117.221455 89 5060ft 137kts
14-Jan-20 11:51 33.231737 -117.176038 89 5062ft 136kts
14-Jan-20 11:52 33.230191 -117.130868 89 5060ft 135kts
14-Jan-20 11:53 33.226691 -117.086391 120 5051ft 138kts
14-Jan-20 11:54 33.196583 -117.062871 149 4122ft 108kts
14-Jan-20 11:55 33.173306 -117.054486 216 3692ft 105kts
14-Jan-20 11:56 33.152113 -117.080481 228 3576ft 109kts
14-Jan-20 11:57 33.149999 -117.115262 279 3097ft 105kts
14-Jan-20 11:58 33.149538 -117.145816 258 2490ft 97kts
14-Jan-20 11:59 33.145577 -117.176092 258 1854ft 87kts
14-Jan-20 12:00 33.138225 -117.207775 261 1445ft 106kts
14-Jan-20 12:01 33.135531 -117.237932 254 985ft 104kts
14-Jan-20 12:02 33.130111 -117.266654 267 455ft 84kts
14-Jan-20 12:03 33.127498 -117.282514 218 334ft 10kts
14-Jan-20 12:04 33.126464 -117.283274 155 334ft 7kts

Navigation Log

Ident Type
Flight plan parsing failed, navigation log unavailable